Time;durP1;ratioP1;P1;durP2;ratioP2;P2;SDS_P1;SDS_P2;PMS_P1;PMS_P2;Temp;Humidity;BMP_temperature;BMP_pressure;BME280_temperature;BME280_humidity;BME280_pressure;Samples;Min_cycle;Max_cycle;Signal;HPM_P1;HPM_P2
2021/03/31 00:00:24;;;;;;;7.03;3.10;;;13.30;53.40;;;;;;5032869;28;20124;-75
2021/03/31 00:02:53;;;;;;;6.68;3.05;;;13.30;53.40;;;;;;5034260;28;20846;-77
2021/03/31 00:05:20;;;;;;;5.88;3.10;;;13.20;53.90;;;;;;5045919;28;20095;-75
2021/03/31 00:07:46;;;;;;;6.78;3.70;;;13.20;54.10;;;;;;5038553;28;20571;-76
2021/03/31 00:10:21;;;;;;;9.43;4.10;;;13.10;54.40;;;;;;5042727;28;20479;-76
2021/03/31 00:12:49;;;;;;;;;;;13.10;54.10;;;;;;5045191;28;20107;-76
2021/03/31 00:15:17;;;;;;;7.43;3.95;;;13.00;53.90;;;;;;5031723;28;20505;-76
2021/03/31 00:17:44;;;;;;;8.68;3.70;;;12.90;54.40;;;;;;5045627;28;20454;-76
2021/03/31 00:20:14;;;;;;;7.25;3.63;;;12.70;53.50;;;;;;5034108;28;20179;-76
2021/03/31 00:22:41;;;;;;;7.70;3.80;;;12.70;54.50;;;;;;5049593;28;20076;-76
2021/03/31 00:25:09;;;;;;;7.68;3.60;;;12.60;55.20;;;;;;5042041;28;20128;-75
2021/03/31 00:27:36;;;;;;;7.78;3.67;;;12.60;55.60;;;;;;5045655;28;20095;-75
2021/03/31 00:30:06;;;;;;;7.40;3.50;;;12.50;55.90;;;;;;5039561;28;20080;-77
2021/03/31 00:32:32;;;;;;;6.30;3.83;;;12.60;56.00;;;;;;5038166;28;20184;-77
2021/03/31 00:34:59;;;;;;;8.02;3.40;;;12.50;57.00;;;;;;5047235;28;20508;-77
2021/03/31 00:37:26;;;;;;;6.72;3.50;;;12.50;56.30;;;;;;5031987;28;20041;-75
2021/03/31 00:39:52;;;;;;;7.63;3.58;;;12.50;56.60;;;;;;5037738;28;20496;-75
2021/03/31 00:42:19;;;;;;;7.90;3.13;;;12.40;56.30;;;;;;5039965;28;20142;-76
2021/03/31 00:44:46;;;;;;;7.38;3.80;;;12.30;56.90;;;;;;5045243;28;20131;-77
2021/03/31 00:47:13;;;;;;;8.90;3.13;;;12.30;57.30;;;;;;5048848;28;20143;-75
2021/03/31 00:49:40;;;;;;;6.38;3.67;;;12.20;57.10;;;;;;5035754;28;20131;-76
2021/03/31 00:52:07;;;;;;;7.53;3.60;;;12.20;57.60;;;;;;5041470;28;20135;-76
2021/03/31 00:54:34;;;;;;;6.57;3.13;;;12.20;58.00;;;;;;5035865;28;20128;-76
2021/03/31 00:57:01;;;;;;;7.93;3.40;;;12.10;58.30;;;;;;5045547;28;20131;-76
2021/03/31 00:59:27;;;;;;;6.18;3.20;;;12.10;58.30;;;;;;5038447;28;20084;-77
2021/03/31 01:01:54;;;;;;;6.35;3.50;;;12.00;58.30;;;;;;5045833;28;20128;-76
2021/03/31 01:04:22;;;;;;;5.30;3.10;;;12.00;57.90;;;;;;5033341;28;20128;-76
2021/03/31 01:06:49;;;;;;;5.47;3.00;;;11.90;58.70;;;;;;5043292;28;20084;-75
2021/03/31 01:09:15;;;;;;;7.72;3.75;;;11.80;58.60;;;;;;5047678;28;20164;-75
2021/03/31 01:11:50;;;;;;;8.10;3.63;;;11.80;58.70;;;;;;5044604;28;20120;-74
2021/03/31 01:14:26;;;;;;;7.72;3.50;;;11.70;58.40;;;;;;5031662;28;20140;-76
2021/03/31 01:16:59;;;;;;;6.35;3.10;;;11.50;59.10;;;;;;5045478;28;20133;-75
2021/03/31 01:20:27;;;;;;;7.57;3.20;;;11.50;59.90;;;;;;5048960;28;20128;-74
2021/03/31 01:23:44;;;;;;;7.00;3.00;;;11.50;60.20;;;;;;5034554;28;20077;-75
2021/03/31 01:26:20;;;;;;;7.10;3.10;;;11.50;60.80;;;;;;5032297;28;20140;-75
2021/03/31 01:29:21;;;;;;;8.68;3.55;;;11.40;60.60;;;;;;5047347;28;20132;-77
2021/03/31 01:32:02;;;;;;;5.90;3.13;;;11.40;61.00;;;;;;5034672;28;20132;-75
2021/03/31 01:34:37;;;;;;;6.55;3.17;;;11.40;60.80;;;;;;5037507;28;20091;-75
2021/03/31 01:37:12;;;;;;;6.28;3.42;;;11.30;61.60;;;;;;5046020;28;20041;-75
2021/03/31 01:39:42;;;;;;;4.65;2.72;;;11.30;61.80;;;;;;5034757;28;20148;-76
2021/03/31 01:42:10;;;;;;;6.05;3.00;;;11.30;62.20;;;;;;5040079;28;20144;-77
2021/03/31 01:44:41;;;;;;;7.65;3.17;;;11.30;62.30;;;;;;5030881;28;20475;-77
2021/03/31 01:47:10;;;;;;;4.93;3.03;;;11.20;62.80;;;;;;5046029;28;20052;-76
2021/03/31 01:49:38;;;;;;;5.95;3.00;;;11.30;62.90;;;;;;5034481;28;20132;-77
2021/03/31 01:52:07;;;;;;;8.50;3.38;;;11.40;63.10;;;;;;5040548;28;20103;-77
2021/03/31 01:54:36;;;;;;;7.05;3.97;;;11.30;62.20;;;;;;5042046;28;20207;-77
2021/03/31 01:57:05;;;;;;;7.30;3.17;;;11.30;61.00;;;;;;5032536;28;20123;-76
2021/03/31 01:59:32;;;;;;;7.22;3.38;;;11.20;61.20;;;;;;5034409;28;20123;-75
2021/03/31 02:01:59;;;;;;;6.28;3.60;;;11.10;61.90;;;;;;5041170;28;20095;-75
2021/03/31 02:04:28;;;;;;;6.97;3.50;;;11.00;62.10;;;;;;5040863;28;20082;-74
2021/03/31 02:06:56;;;;;;;5.97;3.35;;;10.90;62.40;;;;;;5033654;28;20080;-75
2021/03/31 02:09:25;;;;;;;7.75;3.60;;;10.90;62.90;;;;;;5048100;28;20051;-75
2021/03/31 02:11:52;;;;;;;7.55;3.60;;;10.80;63.70;;;;;;5049028;28;20501;-75
2021/03/31 02:14:20;;;;;;;6.68;3.58;;;10.70;63.20;;;;;;5047710;28;20072;-76
2021/03/31 02:16:49;;;;;;;7.35;3.30;;;10.80;63.40;;;;;;5034543;28;20137;-74
2021/03/31 02:19:18;;;;;;;8.73;3.08;;;10.70;63.90;;;;;;5047106;28;20088;-75
2021/03/31 02:21:48;;;;;;;6.53;3.35;;;10.70;64.50;;;;;;5042785;28;20120;-75
2021/03/31 02:24:20;;;;;;;6.85;3.50;;;10.70;64.70;;;;;;5038808;28;20504;-76
2021/03/31 02:26:46;;;;;;;7.78;3.10;;;10.70;65.10;;;;;;5034355;28;20140;-75
2021/03/31 02:29:13;;;;;;;5.50;3.10;;;10.60;65.20;;;;;;5045358;28;20176;-75
2021/03/31 02:31:43;;;;;;;5.70;3.15;;;10.70;65.90;;;;;;5035273;28;20133;-74
2021/03/31 02:34:11;;;;;;;6.82;3.50;;;10.70;65.30;;;;;;5044767;28;20076;-76
2021/03/31 02:36:38;;;;;;;6.72;3.20;;;10.70;65.10;;;;;;5032767;28;20478;-77
2021/03/31 02:39:07;;;;;;;6.38;3.05;;;10.60;65.10;;;;;;5040242;28;20136;-75
2021/03/31 02:41:38;;;;;;;5.13;3.17;;;10.60;65.90;;;;;;5041550;28;20152;-76
2021/03/31 02:44:06;;;;;;;6.35;3.67;;;10.60;65.70;;;;;;5034546;28;20149;-76
2021/03/31 02:46:35;;;;;;;7.30;3.20;;;10.50;66.10;;;;;;5048590;28;20124;-76
2021/03/31 02:49:02;;;;;;;5.75;3.30;;;10.50;66.40;;;;;;5043366;28;20077;-75
2021/03/31 02:51:33;;;;;;;7.10;3.63;;;10.50;66.50;;;;;;5033270;28;20080;-75
2021/03/31 02:54:01;;;;;;;6.57;3.28;;;10.50;65.80;;;;;;5040636;28;20124;-75
2021/03/31 02:56:29;;;;;;;7.00;3.60;;;10.40;66.60;;;;;;5040958;28;20133;-75
2021/03/31 02:58:59;;;;;;;7.38;3.58;;;10.30;67.30;;;;;;5037139;28;20522;-76
2021/03/31 03:01:27;;;;;;;6.13;3.40;;;10.20;67.70;;;;;;5048928;28;20042;-74
2021/03/31 03:03:55;;;;;;;6.10;3.50;;;10.40;67.90;;;;;;5034989;28;20049;-74
2021/03/31 03:06:24;;;;;;;7.03;3.30;;;10.30;68.20;;;;;;5041387;28;20084;-76
2021/03/31 03:08:52;;;;;;;6.32;3.63;;;10.30;68.10;;;;;;5047240;28;20136;-77
2021/03/31 03:11:19;;;;;;;6.30;3.40;;;10.40;68.00;;;;;;5035653;28;20051;-75
2021/03/31 03:13:47;;;;;;;11.95;4.13;;;10.40;68.20;;;;;;5046569;28;20132;-74
2021/03/31 03:16:17;;;;;;;8.50;4.32;;;10.30;68.00;;;;;;5042259;28;20135;-75
2021/03/31 03:18:44;;;;;;;7.53;3.60;;;10.20;68.50;;;;;;5038436;28;20136;-74
2021/03/31 03:21:13;;;;;;;7.78;3.58;;;10.10;68.90;;;;;;5041123;28;20491;-75
2021/03/31 03:23:42;;;;;;;8.98;3.90;;;10.20;69.70;;;;;;5045602;28;20136;-74
2021/03/31 03:26:09;;;;;;;6.72;3.45;;;10.10;69.90;;;;;;5034691;28;20057;-75
2021/03/31 03:28:39;;;;;;;8.32;3.70;;;10.00;70.00;;;;;;5036540;28;20151;-75
2021/03/31 03:31:08;;;;;;;6.68;3.60;;;10.00;69.90;;;;;;5043291;28;20140;-76
2021/03/31 03:33:36;;;;;;;6.85;3.50;;;10.00;69.70;;;;;;5044625;28;20128;-75
2021/03/31 03:36:05;;;;;;;6.40;3.53;;;9.90;70.10;;;;;;5035154;28;20137;-76
2021/03/31 03:38:32;;;;;;;6.78;3.50;;;9.80;70.70;;;;;;5033373;28;20048;-76
2021/03/31 03:41:02;;;;;;;7.53;3.95;;;9.80;71.10;;;;;;5039646;28;20629;-75
2021/03/31 03:43:29;;;;;;;6.75;3.50;;;9.80;71.30;;;;;;5039764;28;20049;-79
2021/03/31 03:45:59;;;;;;;7.53;3.85;;;9.80;70.50;;;;;;5047386;28;20128;-78
2021/03/31 03:48:26;;;;;;;8.95;3.47;;;9.80;71.30;;;;;;5034897;28;20072;-78
2021/03/31 03:50:54;;;;;;;7.13;3.95;;;9.70;71.60;;;;;;5044637;28;20076;-78
2021/03/31 03:53:27;;;;;;;10.13;3.92;;;9.70;73.10;;;;;;5042211;28;20049;-77
2021/03/31 03:55:54;;;;;;;9.05;3.80;;;9.70;72.90;;;;;;5038677;28;20443;-78
2021/03/31 03:58:21;;;;;;;7.50;4.10;;;9.70;72.40;;;;;;5046258;28;20159;-78
2021/03/31 04:00:48;;;;;;;8.85;4.38;;;9.60;73.10;;;;;;5037341;28;20076;-78
2021/03/31 04:03:14;;;;;;;6.82;4.20;;;9.70;73.50;;;;;;5051547;28;20084;-78
2021/03/31 04:05:41;;;;;;;8.88;4.32;;;9.70;73.40;;;;;;5040791;28;20092;-78
2021/03/31 04:08:08;;;;;;;7.47;3.35;;;9.60;74.30;;;;;;5046154;28;20140;-77
2021/03/31 04:10:36;;;;;;;5.50;3.72;;;9.60;73.50;;;;;;5047888;28;20077;-76
2021/03/31 04:13:04;;;;;;;5.85;3.63;;;9.70;74.10;;;;;;5039167;28;20107;-79
2021/03/31 04:15:32;;;;;;;7.63;3.67;;;9.70;74.20;;;;;;5049542;28;20617;-78
2021/03/31 04:18:02;;;;;;;11.55;3.80;;;9.70;74.10;;;;;;5042931;28;20083;-78
2021/03/31 04:20:31;;;;;;;7.38;4.45;;;9.70;74.00;;;;;;5043159;28;20060;-77
2021/03/31 04:22:58;;;;;;;7.03;3.75;;;9.60;74.30;;;;;;5046632;28;20402;-75
2021/03/31 04:25:27;;;;;;;8.70;4.25;;;9.60;74.50;;;;;;5044942;28;20145;-75
2021/03/31 04:27:58;;;;;;;8.50;4.35;;;9.60;73.50;;;;;;5041075;28;20134;-76
2021/03/31 04:30:25;;;;;;;8.13;4.20;;;9.50;74.30;;;;;;5054958;28;20083;-76
2021/03/31 04:32:53;;;;;;;6.53;3.75;;;9.40;73.60;;;;;;5054889;28;20076;-76
2021/03/31 04:35:22;;;;;;;9.52;4.20;;;9.40;74.90;;;;;;5054716;28;20048;-76
2021/03/31 04:37:49;;;;;;;8.43;3.75;;;9.30;75.90;;;;;;5054689;28;20049;-76
2021/03/31 04:40:19;;;;;;;7.32;3.40;;;9.30;76.50;;;;;;5054624;28;20076;-76
2021/03/31 04:42:46;;;;;;;7.22;3.90;;;9.30;76.70;;;;;;5054553;28;20136;-76
2021/03/31 04:45:15;;;;;;;6.82;3.72;;;9.30;76.70;;;;;;5054546;28;20505;-76
2021/03/31 04:47:42;;;;;;;8.20;4.32;;;9.20;76.80;;;;;;5054388;28;20076;-75
2021/03/31 04:50:11;;;;;;;6.30;3.95;;;9.20;77.20;;;;;;5054345;28;20049;-76
2021/03/31 04:52:38;;;;;;;8.57;4.40;;;9.20;77.20;;;;;;5054580;28;20148;-75
2021/03/31 04:55:06;;;;;;;7.78;4.50;;;9.20;78.20;;;;;;5054458;28;20079;-75
2021/03/31 04:57:32;;;;;;;7.78;4.97;;;9.30;78.90;;;;;;5054478;28;20526;-75
2021/03/31 05:00:00;;;;;;;12.48;6.57;;;9.30;78.70;;;;;;5054246;28;20474;-75
2021/03/31 05:02:26;;;;;;;11.98;6.15;;;9.30;78.30;;;;;;5054236;28;20079;-76
2021/03/31 05:04:53;;;;;;;8.73;6.00;;;9.30;78.30;;;;;;5054134;28;20136;-76
2021/03/31 05:07:19;;;;;;;9.98;6.65;;;9.30;77.60;;;;;;5052963;28;20128;-75
2021/03/31 05:09:46;;;;;;;10.05;6.22;;;9.30;77.20;;;;;;5053971;28;20148;-76
2021/03/31 05:12:12;;;;;;;12.77;6.85;;;9.30;76.40;;;;;;5054047;28;20041;-75
2021/03/31 05:14:39;;;;;;;10.82;6.25;;;9.10;77.20;;;;;;5054079;28;20083;-75
2021/03/31 05:17:06;;;;;;;12.35;6.35;;;9.20;78.20;;;;;;5053840;28;20132;-77
2021/03/31 05:19:33;;;;;;;10.70;6.28;;;9.10;77.90;;;;;;5054018;28;20169;-76
2021/03/31 05:22:00;;;;;;;11.68;5.70;;;9.10;77.30;;;;;;5054119;28;20076;-76
2021/03/31 05:24:26;;;;;;;10.60;5.30;;;8.90;78.40;;;;;;5053969;28;20048;-77
2021/03/31 05:26:53;;;;;;;9.52;4.80;;;8.90;79.50;;;;;;5053861;28;20095;-77
2021/03/31 05:29:20;;;;;;;8.30;4.70;;;8.80;81.40;;;;;;5053818;28;20107;-77
2021/03/31 05:31:46;;;;;;;7.80;4.95;;;8.90;82.00;;;;;;5053814;28;20072;-76
2021/03/31 05:34:14;;;;;;;9.35;4.78;;;9.00;82.10;;;;;;5053795;28;20057;-77
2021/03/31 05:36:40;;;;;;;7.32;4.40;;;9.00;82.00;;;;;;5053829;28;20506;-76
2021/03/31 05:39:08;;;;;;;9.32;4.82;;;9.20;82.60;;;;;;5053889;28;20086;-77
2021/03/31 05:41:34;;;;;;;9.50;4.70;;;9.20;82.40;;;;;;5052866;28;20099;-76
2021/03/31 05:44:02;;;;;;;9.07;4.70;;;9.20;82.20;;;;;;5053385;28;20128;-76
2021/03/31 05:46:29;;;;;;;8.43;4.70;;;9.10;82.10;;;;;;5053382;28;20084;-76
2021/03/31 05:48:59;;;;;;;8.13;4.75;;;9.40;81.70;;;;;;5053482;28;20053;-76
2021/03/31 05:51:26;;;;;;;10.82;4.93;;;9.40;81.30;;;;;;5054947;28;20068;-75
2021/03/31 05:53:53;;;;;;;8.52;4.68;;;9.40;81.20;;;;;;5053548;28;20049;-76
2021/03/31 05:56:22;;;;;;;10.20;5.35;;;9.50;81.50;;;;;;5053419;28;20052;-76
2021/03/31 05:58:49;;;;;;;10.88;5.40;;;9.50;81.40;;;;;;5053144;28;20116;-76
2021/03/31 06:01:16;;;;;;;13.45;5.38;;;9.50;81.20;;;;;;5053689;28;20072;-75
2021/03/31 06:03:44;;;;;;;8.80;5.10;;;9.60;80.50;;;;;;5053570;28;20132;-75
2021/03/31 06:06:11;;;;;;;10.20;5.22;;;9.50;80.40;;;;;;5053207;28;20414;-76
2021/03/31 06:08:38;;;;;;;9.52;5.15;;;9.60;80.70;;;;;;5053117;28;20080;-77
2021/03/31 06:11:05;;;;;;;9.93;5.68;;;9.60;81.10;;;;;;5053492;28;20124;-77
2021/03/31 06:13:51;;;;;;;11.27;5.82;;;9.50;81.40;;;;;;5052998;28;20040;-76
2021/03/31 06:16:30;;;;;;;9.07;4.78;;;9.60;81.40;;;;;;5053005;28;20060;-75
2021/03/31 06:18:56;;;;;;;9.52;5.10;;;9.70;81.60;;;;;;5052663;28;20057;-75
2021/03/31 06:21:23;;;;;;;8.85;4.65;;;9.70;81.60;;;;;;5052533;28;20080;-75
2021/03/31 06:23:56;;;;;;;9.50;5.32;;;9.80;81.70;;;;;;5052689;28;20083;-75
2021/03/31 06:26:26;;;;;;;11.75;5.65;;;9.80;81.40;;;;;;5053106;28;20067;-78
2021/03/31 06:28:57;;;;;;;10.10;5.32;;;9.90;81.40;;;;;;5052808;28;20398;-76
2021/03/31 06:31:30;;;;;;;9.38;5.22;;;10.00;81.40;;;;;;5052757;28;20514;-76
2021/03/31 06:34:03;;;;;;;10.15;5.47;;;10.10;81.60;;;;;;5052796;28;20044;-76
2021/03/31 06:36:37;;;;;;;10.20;5.57;;;10.20;81.00;;;;;;5053290;28;20406;-76
2021/03/31 06:39:20;;;;;;;10.30;5.53;;;10.30;81.30;;;;;;5053003;28;20048;-76
2021/03/31 06:41:59;;;;;;;9.68;5.30;;;10.30;81.20;;;;;;5052908;28;20102;-76
2021/03/31 06:44:43;;;;;;;11.40;5.68;;;10.20;81.50;;;;;;5053140;28;20060;-76
2021/03/31 06:47:15;;;;;;;12.68;6.38;;;10.20;81.60;;;;;;5052866;28;20056;-76
2021/03/31 06:49:42;;;;;;;9.75;6.13;;;10.40;81.00;;;;;;5052931;28;20045;-75
2021/03/31 06:52:11;;;;;;;10.10;5.70;;;10.50;80.60;;;;;;5052639;28;20380;-75
2021/03/31 06:54:45;;;;;;;11.63;6.10;;;10.50;80.30;;;;;;5056255;28;20091;-76
2021/03/31 06:57:14;;;;;;;11.77;6.15;;;10.60;80.20;;;;;;5052562;28;20407;-75
2021/03/31 06:59:42;;;;;;;10.93;5.60;;;10.60;80.40;;;;;;5052794;28;20049;-75
2021/03/31 07:02:09;;;;;;;10.55;5.60;;;10.60;80.60;;;;;;5052635;28;20071;-76
2021/03/31 07:04:36;;;;;;;8.25;5.50;;;10.70;80.00;;;;;;5053115;28;20388;-78
2021/03/31 07:07:07;;;;;;;10.90;5.68;;;10.70;80.00;;;;;;5053094;28;20087;-77
2021/03/31 07:09:34;;;;;;;10.38;6.05;;;10.80;79.80;;;;;;5052919;28;20493;-77
2021/03/31 07:12:01;;;;;;;10.90;5.68;;;10.90;79.90;;;;;;5052372;28;20080;-77
2021/03/31 07:14:29;;;;;;;13.32;5.45;;;11.00;80.10;;;;;;5052846;28;20190;-76
2021/03/31 07:16:58;;;;;;;10.45;5.55;;;11.00;80.40;;;;;;5053021;28;20072;-75
2021/03/31 07:19:26;;;;;;;8.95;5.22;;;11.10;80.40;;;;;;5052894;28;20045;-77
2021/03/31 07:21:54;;;;;;;11.15;5.97;;;11.20;80.30;;;;;;5053064;28;20073;-77
2021/03/31 07:24:21;;;;;;;10.60;5.80;;;11.30;79.40;;;;;;5052745;28;20045;-76
2021/03/31 07:26:48;;;;;;;10.38;5.63;;;11.40;78.10;;;;;;5052105;28;20094;-77
2021/03/31 07:29:18;;;;;;;10.18;6.00;;;11.40;78.60;;;;;;5052883;28;20049;-76
2021/03/31 07:31:47;;;;;;;10.95;5.85;;;11.50;77.80;;;;;;5055956;28;20053;-77
2021/03/31 07:34:24;;;;;;;12.70;5.72;;;11.60;77.30;;;;;;5056285;28;20478;-77
2021/03/31 07:36:51;;;;;;;10.18;5.75;;;11.60;76.90;;;;;;5055851;28;20315;-76
2021/03/31 07:39:22;;;;;;;10.95;5.57;;;11.60;77.00;;;;;;5055962;28;20534;-76
2021/03/31 07:41:49;;;;;;;9.75;5.40;;;11.60;77.40;;;;;;5055976;28;20463;-76
2021/03/31 07:44:23;;;;;;;7.85;5.25;;;11.80;77.40;;;;;;5055934;28;20136;-76
2021/03/31 07:46:52;;;;;;;8.80;4.95;;;11.70;76.50;;;;;;5055570;28;20138;-76
2021/03/31 07:49:20;;;;;;;9.30;5.18;;;11.80;77.30;;;;;;5039799;28;20430;-77
2021/03/31 07:51:58;;;;;;;9.00;5.28;;;12.00;77.00;;;;;;5033874;28;20049;-75
2021/03/31 07:54:25;;;;;;;8.90;5.18;;;12.00;76.80;;;;;;5033274;28;20132;-78
2021/03/31 07:56:54;;;;;;;10.38;5.47;;;12.10;76.90;;;;;;5033047;28;20527;-77
2021/03/31 07:59:22;;;;;;;9.90;5.63;;;12.20;76.30;;;;;;5034595;28;20077;-77
2021/03/31 08:01:51;;;;;;;9.95;5.78;;;12.30;76.10;;;;;;5032963;28;20191;-77
2021/03/31 08:04:21;;;;;;;9.07;5.13;;;12.40;76.10;;;;;;5033316;28;20538;-76
2021/03/31 08:06:50;;;;;;;9.98;5.28;;;12.40;75.60;;;;;;5033413;28;20107;-77
2021/03/31 08:09:26;;;;;;;9.40;5.15;;;12.50;75.70;;;;;;5032903;28;20045;-76
2021/03/31 08:11:57;;;;;;;9.52;5.80;;;12.60;75.80;;;;;;5033192;28;20076;-75
2021/03/31 08:14:46;;;;;;;10.13;5.68;;;12.70;75.10;;;;;;5032105;28;20077;-77
2021/03/31 08:17:16;;;;;;;11.95;5.38;;;12.70;75.30;;;;;;5033075;28;20129;-76
2021/03/31 08:19:46;;;;;;;11.27;6.18;;;12.80;75.40;;;;;;5033268;28;20110;-76
2021/03/31 08:22:39;;;;;;;11.25;6.38;;;12.80;75.50;;;;;;5032880;28;20147;-76
2021/03/31 08:25:31;;;;;;;8.93;5.40;;;12.80;76.90;;;;;;5033007;28;20515;-77
2021/03/31 08:28:03;;;;;;;10.73;5.50;;;12.90;77.00;;;;;;5030348;28;20050;-76
2021/03/31 08:30:34;;;;;;;7.97;5.10;;;13.00;76.70;;;;;;5033977;28;20053;-76
2021/03/31 08:33:04;;;;;;;8.75;5.30;;;13.00;76.80;;;;;;5042792;28;20098;-76
2021/03/31 08:35:31;;;;;;;10.45;5.95;;;13.10;76.90;;;;;;5043474;28;20045;-78
2021/03/31 08:37:58;;;;;;;8.35;5.38;;;13.20;76.80;;;;;;5033145;28;20077;-77
2021/03/31 08:40:30;;;;;;;11.18;5.95;;;13.30;76.60;;;;;;5045532;28;20132;-77
2021/03/31 08:43:00;;;;;;;8.57;5.43;;;13.40;76.50;;;;;;5052619;28;20136;-77
2021/03/31 08:45:32;;;;;;;9.52;5.60;;;13.50;76.30;;;;;;5053031;28;20041;-76
2021/03/31 08:47:59;;;;;;;10.32;5.63;;;13.60;76.00;;;;;;5052807;28;20053;-77
2021/03/31 08:50:36;;;;;;;9.57;4.85;;;13.70;75.80;;;;;;5052486;28;20140;-75
2021/03/31 08:53:09;;;;;;;10.52;5.57;;;13.70;75.70;;;;;;5034929;28;20088;-77
2021/03/31 08:55:38;;;;;;;9.27;5.20;;;13.80;75.50;;;;;;5032409;28;20100;-79
2021/03/31 08:58:08;;;;;;;11.70;5.63;;;13.90;75.30;;;;;;5032521;28;20149;-77
2021/03/31 09:00:52;;;;;;;10.13;5.38;;;14.00;74.90;;;;;;5032574;28;20140;-78
2021/03/31 09:03:19;;;;;;;10.90;6.13;;;14.10;74.60;;;;;;5032539;28;20070;-78
2021/03/31 09:05:58;;;;;;;9.75;5.82;;;14.20;73.90;;;;;;5031661;28;20136;-77
2021/03/31 09:08:26;;;;;;;9.57;5.47;;;14.30;72.80;;;;;;5032145;28;20133;-77
2021/03/31 09:10:55;;;;;;;9.52;4.80;;;14.40;72.30;;;;;;5031561;28;20057;-78
2021/03/31 09:13:30;;;;;;;9.93;5.18;;;14.50;72.10;;;;;;5031657;28;20128;-78
2021/03/31 09:16:00;;;;;;;9.13;4.75;;;14.60;71.50;;;;;;5036564;28;20449;-77
2021/03/31 09:18:27;;;;;;;9.85;4.85;;;14.80;70.50;;;;;;5036775;28;20060;-78
2021/03/31 09:20:54;;;;;;;12.80;6.13;;;14.80;69.80;;;;;;5031716;28;20155;-78
2021/03/31 09:23:28;;;;;;;10.32;5.30;;;14.90;68.20;;;;;;5050584;28;20134;-77
2021/03/31 09:26:05;;;;;;;10.73;5.22;;;15.10;67.70;;;;;;5050826;28;20464;-76
2021/03/31 09:28:33;;;;;;;8.75;5.07;;;15.20;67.00;;;;;;5050328;28;20080;-78
2021/03/31 09:31:12;;;;;;;12.15;6.05;;;15.40;65.90;;;;;;5048676;28;20049;-77
2021/03/31 09:33:44;;;;;;;9.85;5.18;;;15.50;63.40;;;;;;5050131;28;20053;-77
2021/03/31 09:36:12;;;;;;;13.55;6.40;;;15.70;63.60;;;;;;5048219;28;20056;-76
2021/03/31 09:38:39;;;;;;;9.07;5.03;;;15.80;62.50;;;;;;5031009;28;20053;-78
2021/03/31 09:41:06;;;;;;;9.77;5.50;;;15.90;62.70;;;;;;5033621;28;20069;-76
2021/03/31 09:43:33;;;;;;;14.20;7.53;;;16.00;61.50;;;;;;5033080;28;20244;-77
2021/03/31 09:46:01;;;;;;;10.80;6.30;;;16.10;60.10;;;;;;5038545;28;20041;-77
2021/03/31 09:48:28;;;;;;;9.75;5.57;;;16.20;59.60;;;;;;5029765;28;20525;-76
2021/03/31 09:50:55;;;;;;;11.77;5.63;;;16.30;59.00;;;;;;5030605;28;20191;-77
2021/03/31 09:53:24;;;;;;;9.10;4.82;;;16.40;57.70;;;;;;5030924;28;20136;-78
2021/03/31 09:55:51;;;;;;;8.85;4.57;;;16.50;57.30;;;;;;5031271;28;20068;-79
2021/03/31 09:58:24;;;;;;;10.10;5.25;;;16.60;57.00;;;;;;5030626;28;20188;-77
2021/03/31 10:00:51;;;;;;;9.27;5.38;;;16.70;56.70;;;;;;5031780;28;20136;-76
2021/03/31 10:03:20;;;;;;;11.25;5.97;;;16.80;56.30;;;;;;5030884;28;20625;-78
2021/03/31 10:05:46;;;;;;;9.20;4.88;;;16.90;54.80;;;;;;5034678;28;20473;-79
2021/03/31 10:08:22;;;;;;;13.02;7.18;;;17.00;54.80;;;;;;5042156;28;20096;-77
2021/03/31 10:10:50;;;;;;;9.10;5.00;;;17.10;54.50;;;;;;5030456;28;20057;-77
2021/03/31 10:13:20;;;;;;;8.88;5.15;;;17.20;53.40;;;;;;5040958;28;20045;-76
2021/03/31 10:15:56;;;;;;;9.40;4.93;;;17.30;53.20;;;;;;5050406;28;20049;-77
2021/03/31 10:18:25;;;;;;;7.53;4.22;;;17.40;53.40;;;;;;5050699;28;20057;-77
2021/03/31 10:20:52;;;;;;;10.70;4.90;;;17.50;52.60;;;;;;5050715;28;20140;-78
2021/03/31 10:23:30;;;;;;;9.38;4.72;;;17.60;51.90;;;;;;5049425;28;20053;-77
2021/03/31 10:26:21;;;;;;;8.80;4.82;;;17.70;51.80;;;;;;5035313;28;20489;-76
2021/03/31 10:28:48;;;;;;;7.07;3.70;;;17.90;50.90;;;;;;5030942;28;20081;-78
2021/03/31 10:31:28;;;;;;;8.65;4.60;;;18.00;50.10;;;;;;5050018;28;20084;-77
2021/03/31 10:33:56;;;;;;;8.27;4.65;;;18.20;49.60;;;;;;5043789;28;20091;-77
2021/03/31 10:36:43;;;;;;;10.68;6.07;;;18.30;49.00;;;;;;5030402;28;20052;-78
2021/03/31 10:50:38;;;;;;;9.35;5.35;;;18.70;47.90;;;;;;5031502;28;20124;-78
2021/03/31 10:53:06;;;;;;;8.30;4.70;;;18.80;48.50;;;;;;5042274;28;20049;-77
2021/03/31 10:55:32;;;;;;;9.20;5.28;;;18.80;48.50;;;;;;5030388;28;20095;-76
2021/03/31 10:57:59;;;;;;;7.40;4.15;;;18.90;47.70;;;;;;5038875;28;20568;-74
2021/03/31 11:00:26;;;;;;;6.68;3.67;;;18.90;46.30;;;;;;5050019;28;20076;-79
2021/03/31 11:02:54;;;;;;;9.48;4.97;;;19.00;46.00;;;;;;5050171;28;20080;-78
2021/03/31 11:05:21;;;;;;;9.75;5.47;;;19.10;45.00;;;;;;5053536;28;20145;-79
2021/03/31 11:07:48;;;;;;;6.82;3.92;;;19.10;45.30;;;;;;5054791;28;20073;-79
2021/03/31 11:10:15;;;;;;;7.38;3.58;;;19.20;44.80;;;;;;5044243;28;20092;-79
2021/03/31 11:12:43;;;;;;;9.40;5.10;;;19.30;45.40;;;;;;5033786;28;20145;-78
2021/03/31 11:15:14;;;;;;;7.43;3.90;;;19.40;43.70;;;;;;5034432;28;20111;-79
2021/03/31 11:17:48;;;;;;;7.85;4.20;;;19.50;41.80;;;;;;5033229;28;20050;-77
2021/03/31 11:20:29;;;;;;;8.98;4.70;;;19.60;41.30;;;;;;5039504;28;20050;-78
2021/03/31 11:25:49;;;;;;;7.45;4.20;;;19.80;41.50;;;;;;5050195;28;20132;-77
2021/03/31 11:28:16;;;;;;;8.70;4.22;;;19.90;41.60;;;;;;5053738;28;20049;-76
2021/03/31 11:30:42;;;;;;;9.32;4.28;;;20.00;42.20;;;;;;5052855;28;20053;-79
2021/03/31 11:33:09;;;;;;;7.13;4.03;;;20.00;41.10;;;;;;5054006;28;20061;-79
2021/03/31 11:35:36;;;;;;;10.27;5.15;;;20.10;40.70;;;;;;5053321;28;20084;-78
2021/03/31 11:38:05;;;;;;;6.70;3.92;;;20.20;38.90;;;;;;5054194;28;20398;-78
2021/03/31 11:40:32;;;;;;;9.88;5.20;;;20.30;38.50;;;;;;5053588;28;20087;-79
2021/03/31 11:42:59;;;;;;;7.60;4.40;;;20.30;38.00;;;;;;5053429;28;20183;-77
2021/03/31 11:45:26;;;;;;;7.25;4.03;;;20.40;38.20;;;;;;5053411;28;20047;-78
2021/03/31 11:47:53;;;;;;;8.25;4.18;;;20.50;38.00;;;;;;5053334;28;20041;-78
2021/03/31 11:50:21;;;;;;;7.53;3.75;;;20.60;38.10;;;;;;5053315;28;20099;-78
2021/03/31 11:52:48;;;;;;;6.35;4.43;;;20.70;38.50;;;;;;5053489;28;20136;-78
2021/03/31 11:55:15;;;;;;;7.07;3.90;;;20.80;36.90;;;;;;5052807;28;20494;-77
2021/03/31 11:57:42;;;;;;;5.35;3.00;;;20.90;35.90;;;;;;5053158;28;20494;-77
2021/03/31 12:00:10;;;;;;;7.55;3.38;;;21.00;36.20;;;;;;5053487;28;20092;-76
2021/03/31 12:02:36;;;;;;;5.35;3.30;;;21.10;36.30;;;;;;5053312;28;20099;-77
2021/03/31 12:05:04;;;;;;;5.45;3.08;;;21.20;36.40;;;;;;5053196;28;20150;-77
2021/03/31 12:07:30;;;;;;;5.45;2.92;;;21.30;35.70;;;;;;5052702;28;20073;-77
2021/03/31 12:09:57;;;;;;;5.15;2.75;;;21.30;32.50;;;;;;5052610;28;20053;-74
2021/03/31 12:12:24;;;;;;;4.72;2.50;;;21.40;32.30;;;;;;5052606;28;20087;-74
2021/03/31 12:14:51;;;;;;;7.00;2.40;;;21.50;31.80;;;;;;5052555;28;20124;-74
2021/03/31 12:17:18;;;;;;;4.85;1.95;;;21.60;30.70;;;;;;5052489;28;20139;-75
2021/03/31 12:19:44;;;;;;;4.97;1.52;;;21.70;30.60;;;;;;5053079;28;20518;-74
2021/03/31 12:22:11;;;;;;;5.07;2.25;;;21.80;30.60;;;;;;5051497;28;20119;-74
2021/03/31 12:24:38;;;;;;;5.25;1.60;;;22.00;30.60;;;;;;5052160;28;20129;-74
2021/03/31 12:27:08;;;;;;;5.78;2.33;;;22.20;29.90;;;;;;5053875;28;20452;-75
2021/03/31 12:29:36;;;;;;;3.17;1.40;;;22.40;30.00;;;;;;5072116;28;20044;-73
2021/03/31 12:32:03;;;;;;;4.97;1.65;;;22.60;29.90;;;;;;5072087;28;20048;-75
2021/03/31 12:34:32;;;;;;;5.22;2.20;;;22.80;29.80;;;;;;5071435;28;20052;-75
2021/03/31 12:36:59;;;;;;;5.30;2.47;;;22.90;29.10;;;;;;5052425;28;20141;-74
2021/03/31 12:39:26;;;;;;;5.90;2.55;;;23.00;29.50;;;;;;5052726;28;20465;-74
2021/03/31 12:41:52;;;;;;;5.53;2.78;;;23.20;29.60;;;;;;5072091;28;20537;-75
2021/03/31 12:44:19;;;;;;;4.88;2.60;;;23.30;29.80;;;;;;5071676;28;20475;-74
2021/03/31 12:46:46;;;;;;;4.47;2.35;;;23.40;30.00;;;;;;5071823;28;20462;-75
2021/03/31 12:49:13;;;;;;;6.07;2.85;;;23.60;29.70;;;;;;5071245;28;20083;-72
2021/03/31 12:51:42;;;;;;;4.57;2.30;;;23.70;29.70;;;;;;5070314;28;20124;-75
2021/03/31 12:54:11;;;;;;;5.15;2.35;;;23.90;30.30;;;;;;5071728;28;20055;-75
2021/03/31 12:56:38;;;;;;;5.38;2.80;;;24.00;29.80;;;;;;5071579;28;20146;-74
2021/03/31 12:59:05;;;;;;;4.88;2.92;;;24.10;29.60;;;;;;5071555;28;20398;-75
2021/03/31 13:01:31;;;;;;;7.20;3.00;;;24.20;29.30;;;;;;5070905;28;20098;-73
2021/03/31 13:03:59;;;;;;;6.05;2.63;;;24.30;28.20;;;;;;5071553;28;20487;-74
2021/03/31 13:06:27;;;;;;;7.38;3.67;;;24.30;28.30;;;;;;5061245;28;20131;-73
2021/03/31 13:08:55;;;;;;;5.40;3.05;;;24.50;28.30;;;;;;5051761;28;20140;-74
2021/03/31 13:11:23;;;;;;;6.57;3.70;;;24.60;28.90;;;;;;5051045;28;20391;-74
2021/03/31 13:14:12;;;;;;;9.00;4.15;;;24.70;29.10;;;;;;5051190;28;20076;-74